Time;durP1;ratioP1;P1;durP2;ratioP2;P2;SDS_P1;SDS_P2;PMS_P1;PMS_P2;Temp;Humidity;BMP_temperature;BMP_pressure;BME280_temperature;BME280_humidity;BME280_pressure;Samples;Min_cycle;Max_cycle;Signal;HPM_P1;HPM_P2
2023/03/03 00:01:54;;;;;;;0.20;0.20;;;;;;;;;;5060690;28;20399;-71
2023/03/03 00:04:19;;;;;;;0.10;0.10;;;;;;;;;;5069172;28;20032;-70
2023/03/03 00:06:45;;;;;;;0.10;0.10;;;;;;;;;;5072461;28;20025;-71
2023/03/03 00:09:10;;;;;;;0.10;0.10;;;;;;;;;;5071931;28;20074;-70
2023/03/03 00:11:36;;;;;;;0.15;0.15;;;;;;;;;;5072298;28;20032;-70
2023/03/03 00:14:02;;;;;;;0.10;0.10;;;;;;;;;;5072331;28;20071;-69
2023/03/03 00:16:30;;;;;;;0.10;0.10;;;;;;;;;;5072496;28;20048;-70
2023/03/03 00:18:55;;;;;;;0.10;0.10;;;;;;;;;;5075817;28;20033;-69
2023/03/03 00:21:24;;;;;;;0.13;0.13;;;;;;;;;;5063104;28;20044;-69
2023/03/03 00:23:50;;;;;;;0.32;0.32;;;;;;;;;;5055508;28;20105;-71
2023/03/03 00:26:15;;;;;;;0.20;0.20;;;;;;;;;;5055676;28;20100;-70
2023/03/03 00:28:46;;;;;;;0.10;0.10;;;;;;;;;;5055547;28;20037;-70
2023/03/03 00:31:15;;;;;;;0.10;0.10;;;;;;;;;;5054644;28;20029;-70
2023/03/03 00:33:44;;;;;;;0.20;0.20;;;;;;;;;;5055550;28;20033;-69
2023/03/03 00:36:22;;;;;;;0.10;0.10;;;;;;;;;;5055889;28;20457;-70
2023/03/03 00:38:48;;;;;;;0.30;0.30;;;;;;;;;;5075365;28;20494;-70
2023/03/03 00:44:54;;;;;;;0.20;0.20;;;;;;;;;;5070880;28;20051;-70
2023/03/03 00:47:37;;;;;;;0.20;0.20;;;;;;;;;;5057163;28;20464;-70
2023/03/03 00:50:05;;;;;;;0.20;0.20;;;;;;;;;;5073572;28;20024;-69
2023/03/03 00:52:33;;;;;;;0.10;0.10;;;;;;;;;;5075256;28;20122;-70
2023/03/03 00:54:59;;;;;;;0.10;0.10;;;;;;;;;;5063982;28;20108;-70
2023/03/03 00:57:24;;;;;;;0.15;0.15;;;;;;;;;;5054989;28;20128;-69
2023/03/03 00:59:50;;;;;;;0.10;0.10;;;;;;;;;;5053864;28;20024;-70
2023/03/03 01:02:16;;;;;;;0.28;0.28;;;;;;;;;;5053750;28;20496;-70
2023/03/03 01:04:43;;;;;;;0.10;0.10;;;;;;;;;;5055430;28;20532;-70
2023/03/03 01:07:09;;;;;;;0.10;0.10;;;;;;;;;;5063174;28;20491;-70
2023/03/03 01:09:34;;;;;;;0.10;0.10;;;;;;;;;;5053496;28;20033;-70
2023/03/03 01:12:00;;;;;;;0.10;0.10;;;;;;;;;;5056349;28;20029;-71
2023/03/03 01:14:25;;;;;;;0.20;0.20;;;;;;;;;;5074682;28;20115;-70
2023/03/03 01:16:51;;;;;;;0.10;0.10;;;;;;;;;;5073492;28;20036;-70
2023/03/03 01:19:16;;;;;;;0.10;0.10;;;;;;;;;;5074777;28;20024;-70
2023/03/03 01:21:42;;;;;;;0.10;0.10;;;;;;;;;;5073246;28;20498;-69
2023/03/03 01:24:08;;;;;;;0.10;0.10;;;;;;;;;;5074498;28;20024;-69
2023/03/03 01:26:33;;;;;;;0.10;0.10;;;;;;;;;;5072973;28;20056;-71
2023/03/03 01:28:59;;;;;;;0.55;0.55;;;;;;;;;;5073114;28;20041;-69
2023/03/03 01:31:24;;;;;;;0.88;0.85;;;;;;;;;;5056564;28;20064;-70
2023/03/03 01:33:50;;;;;;;0.10;0.10;;;;;;;;;;5074481;28;20021;-70
2023/03/03 01:36:15;;;;;;;0.20;0.20;;;;;;;;;;5074353;28;20032;-70
2023/03/03 01:38:42;;;;;;;0.13;0.13;;;;;;;;;;5068827;28;20091;-69
2023/03/03 01:41:07;;;;;;;0.10;0.10;;;;;;;;;;5058418;28;20112;-69
2023/03/03 01:43:33;;;;;;;0.20;0.20;;;;;;;;;;5053042;28;20052;-70
2023/03/03 01:45:58;;;;;;;0.10;0.10;;;;;;;;;;5052943;28;20033;-69
2023/03/03 01:48:41;;;;;;;0.20;0.20;;;;;;;;;;5054184;28;20083;-69
2023/03/03 01:51:18;;;;;;;0.10;0.10;;;;;;;;;;5039756;28;20063;-69
2023/03/03 01:53:46;;;;;;;0.17;0.17;;;;;;;;;;5073827;28;20040;-70
2023/03/03 01:56:14;;;;;;;0.10;0.10;;;;;;;;;;5074243;28;20020;-70
2023/03/03 01:58:44;;;;;;;0.52;0.52;;;;;;;;;;5072805;28;20361;-69
2023/03/03 02:01:30;;;;;;;0.10;0.10;;;;;;;;;;5074116;28;20036;-69
2023/03/03 02:03:57;;;;;;;0.10;0.10;;;;;;;;;;5072443;28;20039;-72
2023/03/03 02:06:24;;;;;;;0.10;0.10;;;;;;;;;;5072338;28;20396;-70
2023/03/03 02:09:03;;;;;;;0.17;0.17;;;;;;;;;;5056002;28;20032;-70
2023/03/03 02:11:31;;;;;;;0.15;0.15;;;;;;;;;;5072483;28;20472;-70
2023/03/03 02:13:57;;;;;;;0.55;0.55;;;;;;;;;;5072313;28;20032;-70
2023/03/03 02:16:23;;;;;;;0.10;0.10;;;;;;;;;;5072335;28;20487;-69
2023/03/03 02:18:49;;;;;;;0.10;0.10;;;;;;;;;;5072240;28;20035;-69
2023/03/03 02:21:16;;;;;;;0.20;0.20;;;;;;;;;;5056130;28;20044;-71
2023/03/03 02:23:52;;;;;;;0.10;0.10;;;;;;;;;;5072339;28;20455;-70
2023/03/03 02:26:23;;;;;;;0.15;0.15;;;;;;;;;;5072319;28;20431;-71
2023/03/03 02:28:54;;;;;;;3.00;1.08;;;;;;;;;;5072086;28;20071;-70
2023/03/03 02:31:21;;;;;;;2.40;2.20;;;;;;;;;;5073212;28;20486;-70
2023/03/03 02:33:49;;;;;;;0.10;0.10;;;;;;;;;;5073569;28;20025;-70
2023/03/03 02:36:16;;;;;;;0.10;0.10;;;;;;;;;;5073514;28;20033;-71
2023/03/03 02:38:47;;;;;;;0.10;0.10;;;;;;;;;;5073713;28;20063;-69
2023/03/03 02:41:25;;;;;;;0.20;0.20;;;;;;;;;;5071845;28;20043;-70
2023/03/03 02:44:05;;;;;;;0.13;0.13;;;;;;;;;;5071875;28;20032;-72
2023/03/03 02:46:33;;;;;;;0.20;0.20;;;;;;;;;;5064274;28;20079;-70
2023/03/03 02:48:59;;;;;;;0.57;0.57;;;;;;;;;;5041333;28;20447;-69
2023/03/03 02:51:25;;;;;;;0.10;0.10;;;;;;;;;;5051941;28;20098;-70
2023/03/03 02:53:50;;;;;;;0.10;0.10;;;;;;;;;;5053038;28;20025;-70
2023/03/03 02:56:16;;;;;;;0.95;0.95;;;;;;;;;;5055429;28;20037;-70
2023/03/03 02:58:42;;;;;;;0.10;0.10;;;;;;;;;;5047343;28;20060;-70
2023/03/03 03:01:08;;;;;;;0.10;0.10;;;;;;;;;;5058959;28;20556;-70
2023/03/03 03:03:33;;;;;;;0.20;0.20;;;;;;;;;;5073287;28;20063;-70
2023/03/03 03:06:01;;;;;;;0.10;0.10;;;;;;;;;;5075971;28;20029;-70
2023/03/03 03:08:26;;;;;;;0.10;0.10;;;;;;;;;;5064751;28;20021;-70
2023/03/03 03:10:52;;;;;;;0.20;0.20;;;;;;;;;;5055688;28;20028;-71
2023/03/03 03:13:18;;;;;;;9.43;4.75;;;;;;;;;;5039027;28;20587;-71
2023/03/03 03:15:47;;;;;;;0.20;0.20;;;;;;;;;;5055799;28;20032;-71
2023/03/03 03:18:13;;;;;;;5.50;3.43;;;;;;;;;;5055854;28;20029;-69
2023/03/03 03:20:40;;;;;;;5.30;1.75;;;;;;;;;;5056161;28;20419;-72
2023/03/03 03:23:08;;;;;;;0.10;0.10;;;;;;;;;;5055537;28;20037;-71
2023/03/03 03:25:33;;;;;;;0.10;0.10;;;;;;;;;;5055391;28;20491;-71
2023/03/03 03:27:59;;;;;;;0.10;0.10;;;;;;;;;;5038953;28;20025;-70
2023/03/03 03:30:25;;;;;;;0.10;0.10;;;;;;;;;;5055127;28;20052;-69
2023/03/03 03:32:50;;;;;;;0.10;0.10;;;;;;;;;;5055469;28;20495;-71
2023/03/03 03:35:16;;;;;;;0.15;0.15;;;;;;;;;;5060839;28;20039;-71
2023/03/03 03:37:42;;;;;;;0.20;0.20;;;;;;;;;;5069213;28;20468;-70
2023/03/03 03:40:09;;;;;;;0.10;0.10;;;;;;;;;;5075332;28;20036;-71
2023/03/03 03:42:34;;;;;;;0.10;0.10;;;;;;;;;;5058430;28;20415;-70
2023/03/03 03:45:01;;;;;;;0.10;0.10;;;;;;;;;;5075090;28;20127;-70
2023/03/03 03:47:26;;;;;;;0.20;0.20;;;;;;;;;;5075206;28;20112;-70
2023/03/03 03:49:53;;;;;;;0.63;0.30;;;;;;;;;;5075005;28;20032;-70
2023/03/03 03:52:19;;;;;;;0.45;0.45;;;;;;;;;;5076418;28;20039;-70
2023/03/03 03:54:44;;;;;;;0.10;0.10;;;;;;;;;;5076232;28;20039;-71
2023/03/03 03:57:09;;;;;;;0.10;0.10;;;;;;;;;;5073125;28;20074;-70
2023/03/03 03:59:35;;;;;;;0.10;0.10;;;;;;;;;;5075093;28;20472;-70
2023/03/03 04:02:01;;;;;;;0.10;0.10;;;;;;;;;;5074344;28;20051;-72
2023/03/03 04:04:26;;;;;;;0.10;0.10;;;;;;;;;;5034373;28;20037;-71
2023/03/03 04:06:52;;;;;;;0.20;0.20;;;;;;;;;;5034574;28;20520;-71
2023/03/03 04:09:18;;;;;;;0.10;0.10;;;;;;;;;;5050475;28;20033;-72
2023/03/03 04:11:45;;;;;;;0.20;0.20;;;;;;;;;;5051009;28;20495;-71
2023/03/03 04:14:12;;;;;;;0.20;0.20;;;;;;;;;;5050650;28;20025;-70
2023/03/03 04:16:38;;;;;;;1.75;1.65;;;;;;;;;;5051108;28;20503;-71
2023/03/03 04:19:04;;;;;;;0.10;0.10;;;;;;;;;;5052175;28;20040;-71
2023/03/03 04:21:31;;;;;;;0.10;0.10;;;;;;;;;;5068640;28;20029;-70
2023/03/03 04:23:58;;;;;;;0.10;0.10;;;;;;;;;;5070654;28;20094;-69
2023/03/03 04:26:25;;;;;;;0.20;0.20;;;;;;;;;;5070502;28;20033;-73
2023/03/03 04:28:51;;;;;;;0.10;0.10;;;;;;;;;;5054231;28;20051;-71
2023/03/03 04:31:17;;;;;;;0.10;0.10;;;;;;;;;;5059164;28;20446;-71
2023/03/03 04:33:43;;;;;;;0.20;0.20;;;;;;;;;;5050994;28;20479;-71
2023/03/03 04:36:09;;;;;;;0.10;0.10;;;;;;;;;;5050281;28;20041;-72
2023/03/03 04:38:36;;;;;;;0.10;0.10;;;;;;;;;;5050159;28;20025;-75
2023/03/03 04:41:01;;;;;;;1.73;1.65;;;;;;;;;;5051666;28;20035;-71
2023/03/03 04:43:31;;;;;;;0.10;0.10;;;;;;;;;;5050472;28;20523;-72
2023/03/03 04:45:57;;;;;;;0.10;0.10;;;;;;;;;;5050511;28;20459;-71
2023/03/03 04:48:22;;;;;;;0.10;0.10;;;;;;;;;;5050214;28;20071;-71
2023/03/03 04:50:48;;;;;;;1.95;1.85;;;;;;;;;;5052370;28;20480;-70
2023/03/03 04:53:13;;;;;;;0.13;0.13;;;;;;;;;;5051290;28;20473;-71
2023/03/03 04:55:40;;;;;;;3.13;2.92;;;;;;;;;;5050216;28;20068;-70
2023/03/03 04:58:09;;;;;;;0.55;0.50;;;;;;;;;;5050219;28;20032;-70
2023/03/03 05:00:35;;;;;;;0.32;0.30;;;;;;;;;;5059967;28;20033;-71
2023/03/03 05:03:01;;;;;;;0.80;0.80;;;;;;;;;;5049654;28;20392;-73
2023/03/03 05:05:27;;;;;;;0.10;0.10;;;;;;;;;;5059603;28;20033;-73
2023/03/03 05:07:52;;;;;;;0.20;0.20;;;;;;;;;;5051422;28;20036;-70
2023/03/03 05:10:18;;;;;;;0.10;0.10;;;;;;;;;;5051130;28;20040;-70
2023/03/03 05:12:43;;;;;;;0.10;0.10;;;;;;;;;;5051413;28;20116;-70
2023/03/03 05:15:10;;;;;;;0.13;0.13;;;;;;;;;;5050893;28;20025;-70
2023/03/03 05:17:36;;;;;;;0.10;0.10;;;;;;;;;;5049513;28;20055;-71
2023/03/03 05:20:02;;;;;;;0.10;0.10;;;;;;;;;;5050816;28;20039;-71
2023/03/03 05:22:27;;;;;;;0.93;0.93;;;;;;;;;;5050424;28;20577;-70
2023/03/03 05:24:52;;;;;;;0.10;0.10;;;;;;;;;;5061386;28;20029;-73
2023/03/03 05:27:18;;;;;;;0.10;0.10;;;;;;;;;;5068714;28;20375;-71
2023/03/03 05:29:44;;;;;;;0.10;0.10;;;;;;;;;;5070357;28;20550;-71
2023/03/03 05:32:09;;;;;;;0.10;0.10;;;;;;;;;;5068932;28;20024;-70
2023/03/03 05:34:34;;;;;;;0.15;0.15;;;;;;;;;;5070214;28;20110;-72
2023/03/03 05:37:00;;;;;;;0.10;0.10;;;;;;;;;;5056409;28;20025;-72
2023/03/03 05:39:25;;;;;;;0.20;0.20;;;;;;;;;;5050435;28;20033;-70
2023/03/03 05:41:52;;;;;;;0.22;0.22;;;;;;;;;;5050293;28;20036;-71
2023/03/03 05:44:18;;;;;;;0.10;0.10;;;;;;;;;;5049179;28;20083;-72
2023/03/03 05:46:43;;;;;;;0.13;0.13;;;;;;;;;;5050972;28;20021;-71
2023/03/03 05:49:08;;;;;;;0.20;0.20;;;;;;;;;;5050343;28;20129;-73
2023/03/03 05:51:34;;;;;;;0.10;0.10;;;;;;;;;;5052121;28;20059;-73
2023/03/03 05:53:59;;;;;;;0.10;0.10;;;;;;;;;;5069874;28;20008;-71
2023/03/03 05:56:25;;;;;;;0.10;0.10;;;;;;;;;;5065093;28;20033;-72
2023/03/03 05:58:50;;;;;;;0.20;0.20;;;;;;;;;;5049841;28;20025;-73
2023/03/03 06:01:15;;;;;;;0.10;0.10;;;;;;;;;;5050527;28;20036;-70
2023/03/03 06:03:41;;;;;;;0.10;0.10;;;;;;;;;;5049576;28;20028;-71
2023/03/03 06:06:08;;;;;;;0.15;0.15;;;;;;;;;;5060663;28;20020;-70
2023/03/03 06:08:33;;;;;;;0.10;0.10;;;;;;;;;;5053387;28;20461;-71
2023/03/03 06:10:58;;;;;;;0.17;0.17;;;;;;;;;;5051787;28;20155;-71
2023/03/03 06:13:24;;;;;;;0.85;0.60;;;;;;;;;;5043593;28;20119;-71
2023/03/03 06:15:49;;;;;;;0.10;0.10;;;;;;;;;;5049517;28;20040;-69
2023/03/03 06:18:15;;;;;;;0.10;0.10;;;;;;;;;;5050683;28;20150;-71
2023/03/03 06:20:40;;;;;;;0.10;0.10;;;;;;;;;;5043296;28;20028;-69
2023/03/03 06:23:06;;;;;;;0.10;0.10;;;;;;;;;;5051046;28;20075;-68
2023/03/03 06:25:34;;;;;;;0.20;0.20;;;;;;;;;;5050534;28;20586;-68
2023/03/03 06:28:00;;;;;;;0.20;0.20;;;;;;;;;;5036574;28;20376;-69
2023/03/03 06:30:27;;;;;;;0.20;0.20;;;;;;;;;;5057714;28;20054;-70
2023/03/03 06:32:53;;;;;;;0.20;0.20;;;;;;;;;;5058796;28;20330;-69
2023/03/03 06:35:18;;;;;;;0.10;0.10;;;;;;;;;;5059736;28;20024;-69
2023/03/03 06:37:44;;;;;;;0.20;0.20;;;;;;;;;;5054439;28;20413;-70
2023/03/03 06:40:10;;;;;;;0.52;0.52;;;;;;;;;;5058341;28;20105;-70
2023/03/03 06:42:35;;;;;;;0.10;0.10;;;;;;;;;;5043349;28;20123;-69
2023/03/03 06:45:01;;;;;;;0.13;0.13;;;;;;;;;;5058070;28;20372;-69
2023/03/03 06:47:26;;;;;;;0.13;0.13;;;;;;;;;;5057377;28;20055;-71
2023/03/03 06:49:51;;;;;;;0.13;0.13;;;;;;;;;;5047545;28;20040;-71
2023/03/03 06:52:19;;;;;;;2.60;0.90;;;;;;;;;;5047411;28;20087;-71
2023/03/03 06:54:44;;;;;;;0.15;0.15;;;;;;;;;;5047566;28;20488;-70
2023/03/03 06:57:16;;;;;;;0.10;0.10;;;;;;;;;;5048860;28;20037;-75
2023/03/03 06:59:41;;;;;;;0.55;0.55;;;;;;;;;;5064567;28;20025;-70
2023/03/03 07:02:15;;;;;;;0.10;0.10;;;;;;;;;;5049312;28;20048;-69
2023/03/03 07:04:40;;;;;;;0.30;0.30;;;;;;;;;;5051626;28;20057;-73
2023/03/03 07:07:14;;;;;;;0.20;0.20;;;;;;;;;;5049193;28;20064;-71
2023/03/03 07:09:39;;;;;;;0.20;0.20;;;;;;;;;;5047910;28;20052;-70
2023/03/03 07:12:09;;;;;;;0.70;0.70;;;;;;;;;;5049233;28;20067;-70
2023/03/03 07:14:34;;;;;;;;;;;;;;;;;;5049526;28;20397;-69
2023/03/03 07:17:00;;;;;;;4.63;3.23;;;;;;;;;;5048933;28;19913;-70
2023/03/03 07:19:30;;;;;;;0.20;0.20;;;;;;;;;;5052551;28;20350;-70
2023/03/03 07:21:56;;;;;;;1.15;0.40;;;;;;;;;;5052613;28;20032;-73
2023/03/03 07:24:29;;;;;;;0.30;0.30;;;;;;;;;;5053601;28;20028;-71
2023/03/03 07:26:58;;;;;;;1.52;0.77;;;;;;;;;;5052741;28;20037;-71
2023/03/03 07:29:25;;;;;;;0.52;0.52;;;;;;;;;;5048629;28;20052;-71
2023/03/03 07:31:52;;;;;;;0.45;0.45;;;;;;;;;;5049654;28;20028;-72
2023/03/03 07:34:22;;;;;;;0.17;0.17;;;;;;;;;;5067976;28;20097;-71
2023/03/03 07:36:48;;;;;;;0.30;0.30;;;;;;;;;;5064035;28;20787;-70
2023/03/03 07:39:16;;;;;;;0.40;0.40;;;;;;;;;;5060667;28;20056;-71
2023/03/03 07:41:42;;;;;;;0.20;0.20;;;;;;;;;;5067767;28;20122;-71
2023/03/03 07:44:20;;;;;;;0.25;0.25;;;;;;;;;;5068094;28;20044;-72
2023/03/03 07:46:47;;;;;;;0.40;0.30;;;;;;;;;;5067313;28;20034;-71
2023/03/03 07:49:24;;;;;;;0.20;0.20;;;;;;;;;;5050204;28;20055;-72
2023/03/03 07:51:54;;;;;;;0.98;0.70;;;;;;;;;;5065567;28;20195;-71
2023/03/03 07:54:38;;;;;;;28.67;0.70;;;;;;;;;;5054183;28;20037;-71
2023/03/03 07:57:06;;;;;;;0.28;0.28;;;;;;;;;;5050791;28;20028;-72
2023/03/03 07:59:34;;;;;;;0.70;0.70;;;;;;;;;;5052073;28;20051;-72
2023/03/03 08:02:00;;;;;;;0.38;0.38;;;;;;;;;;5054718;28;20033;-71
2023/03/03 08:04:35;;;;;;;0.10;0.10;;;;;;;;;;5061465;28;20479;-72
2023/03/03 08:07:00;;;;;;;0.20;0.20;;;;;;;;;;5056001;28;20035;-71
2023/03/03 08:09:37;;;;;;;0.10;0.10;;;;;;;;;;5069327;28;20387;-71
2023/03/03 08:12:05;;;;;;;0.10;0.10;;;;;;;;;;5062819;28;20029;-72
2023/03/03 08:14:35;;;;;;;0.52;0.52;;;;;;;;;;5062252;28;20859;-71
2023/03/03 08:17:00;;;;;;;;;;;;;;;;;;5053335;28;20040;-72
2023/03/03 08:19:27;;;;;;;0.10;0.10;;;;;;;;;;5056681;28;19912;-72
2023/03/03 08:21:58;;;;;;;0.10;0.10;;;;;;;;;;5044664;28;20043;-72
2023/03/03 08:24:24;;;;;;;0.85;0.57;;;;;;;;;;5057797;28;20021;-72
2023/03/03 08:26:49;;;;;;;0.10;0.10;;;;;;;;;;5060977;28;20029;-72
2023/03/03 08:29:15;;;;;;;0.10;0.10;;;;;;;;;;5060012;28;20077;-75
2023/03/03 08:31:40;;;;;;;0.20;0.20;;;;;;;;;;5056928;28;20115;-74
2023/03/03 08:34:05;;;;;;;0.30;0.30;;;;;;;;;;5061391;28;20025;-75
2023/03/03 08:36:31;;;;;;;0.17;0.17;;;;;;;;;;5057846;28;20053;-73
2023/03/03 08:38:56;;;;;;;0.10;0.10;;;;;;;;;;5062399;28;20021;-74
2023/03/03 08:41:22;;;;;;;0.10;0.10;;;;;;;;;;5059014;28;20095;-74
2023/03/03 08:43:47;;;;;;;0.10;0.10;;;;;;;;;;5053489;28;20060;-74
2023/03/03 08:46:13;;;;;;;0.10;0.10;;;;;;;;;;5069510;28;20105;-75
2023/03/03 08:48:38;;;;;;;0.10;0.10;;;;;;;;;;5069371;28;20028;-74
2023/03/03 08:51:04;;;;;;;0.10;0.10;;;;;;;;;;5059179;28;20287;-74
2023/03/03 08:53:32;;;;;;;0.10;0.10;;;;;;;;;;5048885;28;20463;-74
2023/03/03 08:55:58;;;;;;;0.10;0.10;;;;;;;;;;5053308;28;20090;-73
2023/03/03 08:58:23;;;;;;;0.10;0.10;;;;;;;;;;5048374;28;20029;-74
2023/03/03 09:00:48;;;;;;;0.10;0.10;;;;;;;;;;5053785;28;20032;-74
2023/03/03 09:03:14;;;;;;;0.10;0.10;;;;;;;;;;5068669;28;20064;-73
2023/03/03 09:05:40;;;;;;;0.10;0.10;;;;;;;;;;5068477;28;21002;-74
2023/03/03 09:08:06;;;;;;;0.10;0.10;;;;;;;;;;5068173;28;20107;-74
2023/03/03 09:10:33;;;;;;;0.45;0.40;;;;;;;;;;5067147;28;20025;-74
2023/03/03 09:13:05;;;;;;;0.10;0.10;;;;;;;;;;5057177;28;20053;-74
2023/03/03 09:15:36;;;;;;;0.20;0.20;;;;;;;;;;5057548;28;20039;-73
2023/03/03 09:18:21;;;;;;;0.10;0.10;;;;;;;;;;5046598;28;20115;-75
2023/03/03 09:20:48;;;;;;;0.20;0.20;;;;;;;;;;5046508;28;20033;-74
2023/03/03 09:23:26;;;;;;;0.10;0.10;;;;;;;;;;5045636;28;20611;-74
2023/03/03 09:25:52;;;;;;;0.20;0.20;;;;;;;;;;5056026;28;20020;-74
2023/03/03 09:28:24;;;;;;;0.10;0.10;;;;;;;;;;5054425;28;20090;-73
2023/03/03 09:30:51;;;;;;;0.10;0.10;;;;;;;;;;5056136;28;20044;-74
2023/03/03 09:33:35;;;;;;;1.00;0.30;;;;;;;;;;5033356;28;20388;-75
2023/03/03 09:36:02;;;;;;;0.15;0.15;;;;;;;;;;5059628;28;20028;-75
2023/03/03 09:38:32;;;;;;;0.20;0.20;;;;;;;;;;5035263;28;20834;-76
2023/03/03 09:40:57;;;;;;;;;;;;;;;;;;5049565;28;20120;-75
2023/03/03 09:43:31;;;;;;;0.25;0.20;;;;;;;;;;5047411;28;20011;-74
2023/03/03 09:46:02;;;;;;;0.10;0.10;;;;;;;;;;5046698;28;20480;-73
2023/03/03 09:48:36;;;;;;;0.10;0.10;;;;;;;;;;5063843;28;20041;-75
2023/03/03 09:58:10;;;;;;;0.10;0.10;;;;;;;;;;5057807;28;20047;-74
2023/03/03 10:00:55;;;;;;;0.17;0.17;;;;;;;;;;5053667;28;20128;-73
2023/03/03 10:03:20;;;;;;;0.10;0.10;;;;;;;;;;5062175;28;20037;-73
2023/03/03 10:05:45;;;;;;;0.10;0.10;;;;;;;;;;5063339;28;20039;-74
2023/03/03 10:08:29;;;;;;;0.10;0.10;;;;;;;;;;5050640;28;20183;-72
2023/03/03 10:11:10;;;;;;;0.10;0.10;;;;;;;;;;5066546;28;20038;-73
2023/03/03 10:13:42;;;;;;;0.35;0.35;;;;;;;;;;5064299;28;20032;-73
2023/03/03 10:16:27;;;;;;;0.20;0.20;;;;;;;;;;5066203;28;20079;-73
2023/03/03 10:19:08;;;;;;;0.10;0.10;;;;;;;;;;5064800;28;20435;-72
2023/03/03 10:21:47;;;;;;;0.10;0.10;;;;;;;;;;5066019;28;20040;-73
2023/03/03 10:24:12;;;;;;;0.10;0.10;;;;;;;;;;5066483;28;20108;-72
2023/03/03 10:26:56;;;;;;;0.10;0.10;;;;;;;;;;5065848;28;20170;-72
2023/03/03 10:29:26;;;;;;;0.20;0.20;;;;;;;;;;5064234;28;20063;-74
2023/03/03 10:31:51;;;;;;;;;;;;;;;;;;5066456;28;20028;-73
2023/03/03 10:34:20;;;;;;;0.10;0.10;;;;;;;;;;5064674;28;19915;-73
2023/03/03 10:36:50;;;;;;;2.00;1.50;;;;;;;;;;5058645;28;20285;-73
2023/03/03 10:39:16;;;;;;;0.20;0.20;;;;;;;;;;5055485;28;20068;-73
2023/03/03 10:41:59;;;;;;;0.20;0.20;;;;;;;;;;5052096;28;20039;-72
2023/03/03 10:44:34;;;;;;;0.43;0.40;;;;;;;;;;5054273;28;20033;-73
2023/03/03 10:47:29;;;;;;;0.10;0.10;;;;;;;;;;5052943;28;20028;-72
2023/03/03 10:50:02;;;;;;;0.20;0.20;;;;;;;;;;5051963;28;20056;-71
2023/03/03 10:52:48;;;;;;;0.17;0.17;;;;;;;;;;5050118;28;20029;-73
2023/03/03 10:55:25;;;;;;;0.10;0.10;;;;;;;;;;5042950;28;20024;-72
2023/03/03 10:57:57;;;;;;;0.10;0.10;;;;;;;;;;5062815;28;20086;-71
2023/03/03 11:00:25;;;;;;;0.10;0.10;;;;;;;;;;5063822;28;20090;-72
2023/03/03 11:03:09;;;;;;;0.10;0.10;;;;;;;;;;5063116;28;20355;-73
2023/03/03 11:05:34;;;;;;;0.10;0.10;;;;;;;;;;5055704;28;20028;-73
2023/03/03 11:08:08;;;;;;;0.22;0.20;;;;;;;;;;5049466;28;20029;-72
2023/03/03 11:10:44;;;;;;;0.10;0.10;;;;;;;;;;5052800;28;20115;-74
2023/03/03 11:13:30;;;;;;;0.10;0.10;;;;;;;;;;5056408;28;20090;-74
2023/03/03 11:16:13;;;;;;;0.20;0.20;;;;;;;;;;5043720;28;20404;-74
2023/03/03 11:18:48;;;;;;;0.10;0.10;;;;;;;;;;5055593;28;20020;-76
2023/03/03 11:21:22;;;;;;;0.10;0.10;;;;;;;;;;5052757;28;20040;-75
2023/03/03 11:24:01;;;;;;;0.10;0.10;;;;;;;;;;5032495;28;20032;-76
2023/03/03 11:26:27;;;;;;;0.10;0.10;;;;;;;;;;5052467;28;20029;-74
2023/03/03 11:29:07;;;;;;;0.10;0.10;;;;;;;;;;5059813;28;20052;-73
2023/03/03 11:31:36;;;;;;;0.10;0.10;;;;;;;;;;5060430;28;20551;-75
2023/03/03 11:34:01;;;;;;;0.10;0.10;;;;;;;;;;5052796;28;20098;-75
2023/03/03 11:36:29;;;;;;;0.10;0.10;;;;;;;;;;5052621;28;20472;-73
2023/03/03 11:38:59;;;;;;;0.10;0.10;;;;;;;;;;5054417;28;20036;-74
2023/03/03 11:41:25;;;;;;;;;;;;;;;;;;5056062;28;20032;-73
2023/03/03 11:43:52;;;;;;;0.10;0.10;;;;;;;;;;5063074;28;19912;-74
2023/03/03 11:46:21;;;;;;;0.10;0.10;;;;;;;;;;5065988;28;20068;-74
2023/03/03 11:48:52;;;;;;;0.10;0.10;;;;;;;;;;5064033;28;20037;-74
2023/03/03 11:51:38;;;;;;;0.10;0.10;;;;;;;;;;5067755;28;20033;-74
2023/03/03 11:54:22;;;;;;;0.10;0.10;;;;;;;;;;5071035;28;20040;-74
2023/03/03 11:56:48;;;;;;;0.10;0.10;;;;;;;;;;5068290;28;20086;-75
2023/03/03 11:59:40;;;;;;;0.25;0.20;;;;;;;;;;5051824;28;20029;-75
2023/03/03 12:02:08;;;;;;;0.17;0.17;;;;;;;;;;5060575;28;20453;-75
2023/03/03 12:04:43;;;;;;;0.38;0.30;;;;;;;;;;5061161;28;20032;-74
2023/03/03 12:07:08;;;;;;;0.10;0.10;;;;;;;;;;5051722;28;20029;-73
2023/03/03 12:09:52;;;;;;;0.10;0.10;;;;;;;;;;5050360;28;20055;-73
2023/03/03 12:12:22;;;;;;;0.10;0.10;;;;;;;;;;5062396;28;20024;-74
2023/03/03 12:21:56;;;;;;;0.25;0.25;;;;;;;;;;5062791;28;20174;-74
2023/03/03 12:24:40;;;;;;;0.20;0.20;;;;;;;;;;5068398;28;20035;-75
2023/03/03 12:27:10;;;;;;;0.10;0.10;;;;;;;;;;5069704;28;20511;-74
2023/03/03 12:33:22;;;;;;;0.17;0.17;;;;;;;;;;5065651;28;20143;-74
2023/03/03 12:35:47;;;;;;;1.55;0.38;;;;;;;;;;5070148;28;20036;-74
2023/03/03 12:38:29;;;;;;;0.20;0.20;;;;;;;;;;5070565;28;20030;-75
2023/03/03 12:40:54;;;;;;;0.15;0.15;;;;;;;;;;5051645;28;20029;-74
2023/03/03 12:43:29;;;;;;;0.10;0.10;;;;;;;;;;5052516;28;20847;-74
2023/03/03 12:45:59;;;;;;;0.10;0.10;;;;;;;;;;5057906;28;20389;-75
2023/03/03 12:48:41;;;;;;;0.35;0.35;;;;;;;;;;5059396;28;20044;-74
2023/03/03 12:51:25;;;;;;;0.20;0.20;;;;;;;;;;5059851;28;20032;-75
2023/03/03 12:54:09;;;;;;;0.10;0.10;;;;;;;;;;5054362;28;20144;-74
2023/03/03 12:56:42;;;;;;;0.10;0.10;;;;;;;;;;5057799;28;20033;-75
2023/03/03 12:59:10;;;;;;;0.10;0.10;;;;;;;;;;5064176;28;20032;-74
2023/03/03 13:01:44;;;;;;;0.20;0.20;;;;;;;;;;5061238;28;20021;-74
2023/03/03 13:04:25;;;;;;;0.10;0.10;;;;;;;;;;5067016;28;20078;-74
2023/03/03 13:06:55;;;;;;;0.10;0.10;;;;;;;;;;5059311;28;20400;-74
2023/03/03 13:09:36;;;;;;;0.13;0.10;;;;;;;;;;5060906;28;20070;-73
2023/03/03 13:12:11;;;;;;;0.10;0.10;;;;;;;;;;5057494;28;20113;-74
2023/03/03 13:14:43;;;;;;;0.10;0.10;;;;;;;;;;5050296;28;20020;-75
2023/03/03 13:17:18;;;;;;;0.10;0.10;;;;;;;;;;5049405;28;20324;-75
2023/03/03 13:19:47;;;;;;;0.10;0.10;;;;;;;;;;5055422;28;20427;-74
2023/03/03 13:22:16;;;;;;;0.10;0.10;;;;;;;;;;5054783;28;20033;-74
2023/03/03 13:24:54;;;;;;;0.10;0.10;;;;;;;;;;5048991;28;20029;-75
2023/03/03 13:27:23;;;;;;;0.10;0.10;;;;;;;;;;5054149;28;20067;-73
2023/03/03 13:30:14;;;;;;;0.20;0.20;;;;;;;;;;5051753;28;20091;-74
2023/03/03 13:32:42;;;;;;;0.10;0.10;;;;;;;;;;5051123;28;20048;-74
2023/03/03 13:35:13;;;;;;;0.20;0.20;;;;;;;;;;5039667;28;20031;-74
2023/03/03 13:37:44;;;;;;;0.17;0.17;;;;;;;;;;5052277;28;20103;-75
2023/03/03 13:40:12;;;;;;;0.10;0.10;;;;;;;;;;5044905;28;20064;-74
2023/03/03 13:42:39;;;;;;;0.10;0.10;;;;;;;;;;5045118;28;20109;-74
2023/03/03 13:45:16;;;;;;;0.30;0.30;;;;;;;;;;5044239;28;20029;-75
2023/03/03 13:47:56;;;;;;;0.10;0.10;;;;;;;;;;5056357;28;20059;-75
2023/03/03 13:50:42;;;;;;;0.10;0.10;;;;;;;;;;5063273;28;20586;-74
2023/03/03 13:53:26;;;;;;;0.10;0.10;;;;;;;;;;5046519;28;20490;-76
2023/03/03 13:55:59;;;;;;;0.10;0.10;;;;;;;;;;5046771;28;20033;-74
2023/03/03 13:58:38;;;;;;;0.10;0.10;;;;;;;;;;5048171;28;20400;-74
2023/03/03 14:01:22;;;;;;;0.10;0.10;;;;;;;;;;5051365;28;20024;-75
2023/03/03 14:03:50;;;;;;;0.30;0.30;;;;;;;;;;5066148;28;20044;-74
2023/03/03 14:06:17;;;;;;;0.13;0.13;;;;;;;;;;5053030;28;20037;-74
2023/03/03 14:08:49;;;;;;;0.10;0.10;;;;;;;;;;5051818;28;20033;-76
2023/03/03 14:11:30;;;;;;;0.20;0.20;;;;;;;;;;5054562;28;20481;-74
2023/03/03 14:14:14;;;;;;;0.20;0.20;;;;;;;;;;5046748;28;20033;-75
2023/03/03 14:16:39;;;;;;;0.10;0.10;;;;;;;;;;5048709;28;20029;-74
2023/03/03 14:19:09;;;;;;;0.10;0.10;;;;;;;;;;5047006;28;20035;-75
2023/03/03 14:21:38;;;;;;;0.10;0.10;;;;;;;;;;5046460;28;20037;-74
2023/03/03 14:24:12;;;;;;;0.10;0.10;;;;;;;;;;5048849;28;20049;-76
2023/03/03 14:26:48;;;;;;;0.10;0.10;;;;;;;;;;5030803;28;20293;-74
2023/03/03 14:29:26;;;;;;;0.95;0.57;;;;;;;;;;5048310;28;20488;-75
2023/03/03 14:31:51;;;;;;;0.15;0.15;;;;;;;;;;5049046;28;20053;-75
2023/03/03 14:34:17;;;;;;;1.38;1.38;;;;;;;;;;5049695;28;20027;-74
2023/03/03 14:36:43;;;;;;;0.10;0.10;;;;;;;;;;5049623;28;20025;-74
2023/03/03 14:39:27;;;;;;;0.10;0.10;;;;;;;;;;5049487;28;20036;-75
2023/03/03 14:41:56;;;;;;;0.10;0.10;;;;;;;;;;5049875;28;20028;-75
2023/03/03 14:44:25;;;;;;;0.10;0.10;;;;;;;;;;5032210;28;20020;-74
2023/03/03 14:46:51;;;;;;;;;;;;;;;;;;5050068;28;20031;-73
2023/03/03 14:49:32;;;;;;;0.10;0.10;;;;;;;;;;5047703;28;19908;-73
2023/03/03 14:52:07;;;;;;;0.10;0.10;;;;;;;;;;5049274;28;20120;-74
2023/03/03 14:54:36;;;;;;;0.10;0.10;;;;;;;;;;5049781;28;20427;-73
2023/03/03 14:57:16;;;;;;;0.20;0.20;;;;;;;;;;5049494;28;20473;-73
2023/03/03 14:59:54;;;;;;;0.10;0.10;;;;;;;;;;5048458;28;20377;-74
2023/03/03 15:02:20;;;;;;;0.10;0.10;;;;;;;;;;5048122;28;20131;-74
2023/03/03 15:04:47;;;;;;;0.10;0.10;;;;;;;;;;5049286;28;20167;-74
2023/03/03 15:07:22;;;;;;;0.10;0.10;;;;;;;;;;5047566;28;20071;-75
2023/03/03 15:09:49;;;;;;;0.10;0.10;;;;;;;;;;5045642;28;20036;-73
2023/03/03 15:12:25;;;;;;;0.10;0.10;;;;;;;;;;5047220;28;20040;-74
2023/03/03 15:14:52;;;;;;;0.10;0.10;;;;;;;;;;5049209;28;20029;-75
2023/03/03 15:17:17;;;;;;;0.10;0.10;;;;;;;;;;5031454;28;20036;-74
2023/03/03 15:19:47;;;;;;;0.10;0.10;;;;;;;;;;5031013;28;20037;-74
2023/03/03 15:22:20;;;;;;;0.10;0.10;;;;;;;;;;5049093;28;20031;-75